East Springfield, Ohio
Current Conditions -  °F | °C
As of 4:53 AM on Saturday 25 Oct 2014 (Local Time) from KHLG Reporting Station
Clear Clear  
Wind Chill: 42°   Ceiling: Unl
Heat Index: 46°   Visibility: 10mi
Dew Point: 39°   Wind: 8mph
Humidity: 76%   Direction: 180°S
Pressure: 29.97"   Gusts: NA
Location:  40.45°N, 80.86°W
Report Text: KHLG 250853Z AUTO 18007KT 10SM CLR 08/04 A2997 RMK AO2 SLP153 T00780039 58010
Loading
Personal Weather Stations






























Interactive Weather Map
Tropical Storm Tracking
New forecast layout! Learn more

10-Day Weather Forecast

Advertisements
Track Severe Weather on mobile